Time;durP1;ratioP1;P1;durP2;ratioP2;P2;SDS_P1;SDS_P2;PMS_P1;PMS_P2;Temp;Humidity;BMP_temperature;BMP_pressure;BME280_temperature;BME280_humidity;BME280_pressure;Samples;Min_cycle;Max_cycle;Signal;HPM_P1;HPM_P2
2022/10/28 00:00:16;;;;;;;7.13;3.58;;;;;;;12.29;56.89;101824.84;5027453;28;20297;-71
2022/10/28 00:02:42;;;;;;;9.98;3.83;;;;;;;12.27;57.01;101820.56;5001990;28;20110;-72
2022/10/28 00:05:08;;;;;;;9.65;3.40;;;;;;;12.25;56.79;101823.22;5026884;28;20043;-72
2022/10/28 00:07:33;;;;;;;7.90;4.32;;;;;;;12.24;56.75;101821.50;5029036;28;20167;-72
2022/10/28 00:09:58;;;;;;;6.80;4.25;;;;;;;12.23;57.48;101822.41;5025415;28;20040;-72
2022/10/28 00:12:24;;;;;;;7.13;4.47;;;;;;;12.23;57.45;101818.94;5027521;28;20135;-72
2022/10/28 00:14:49;;;;;;;13.68;4.28;;;;;;;12.23;57.37;101817.19;5028051;28;20060;-71
2022/10/28 00:17:15;;;;;;;6.20;3.88;;;;;;;12.21;57.07;101813.75;5007779;28;20080;-72
2022/10/28 00:19:40;;;;;;;7.13;3.83;;;;;;;12.19;57.30;101818.19;5015318;28;20454;-72
2022/10/28 00:22:06;;;;;;;15.13;3.53;;;;;;;12.14;57.31;101809.63;5026979;28;20566;-71
2022/10/28 00:24:31;;;;;;;6.03;4.03;;;;;;;12.12;57.95;101800.09;5026390;28;20446;-72
2022/10/28 00:26:56;;;;;;;6.55;4.15;;;;;;;12.10;57.41;101796.66;5026510;28;20179;-71
2022/10/28 00:29:23;;;;;;;6.63;3.50;;;;;;;12.10;57.54;101802.75;5010386;28;20033;-72
2022/10/28 00:31:49;;;;;;;7.60;3.72;;;;;;;12.06;57.52;101806.38;5009231;28;20471;-72
2022/10/28 00:34:17;;;;;;;6.25;4.07;;;;;;;11.98;57.39;101817.09;5029287;28;20350;-72
2022/10/28 00:36:44;;;;;;;10.38;4.75;;;;;;;11.93;57.37;101831.22;5009947;28;20032;-71
2022/10/28 00:39:15;;;;;;;6.57;4.82;;;;;;;11.90;57.55;101824.31;5029434;28;20039;-72
2022/10/28 00:41:47;;;;;;;9.70;4.73;;;;;;;11.93;57.89;101829.47;5025967;28;20059;-71
2022/10/28 00:44:38;;;;;;;13.77;5.07;;;;;;;11.94;58.31;101836.44;5010376;28;20036;-72
2022/10/28 00:47:09;;;;;;;6.55;5.00;;;;;;;11.90;58.15;101832.19;5009654;28;20358;-72
2022/10/28 00:49:34;;;;;;;12.40;4.88;;;;;;;11.84;58.81;101833.25;5027804;28;20758;-72
2022/10/28 00:52:15;;;;;;;10.02;5.65;;;;;;;11.89;58.47;101830.47;5026610;28;20041;-72
2022/10/28 00:54:42;;;;;;;10.25;4.05;;;;;;;11.88;58.10;101829.59;5010264;28;20040;-72
2022/10/28 00:57:13;;;;;;;9.60;4.25;;;;;;;11.81;58.33;101833.31;5027056;28;20073;-71
2022/10/28 00:59:44;;;;;;;7.80;4.00;;;;;;;11.78;58.40;101832.56;5027731;28;20079;-72
2022/10/28 01:02:10;;;;;;;9.10;4.38;;;;;;;11.88;58.64;101829.59;5018387;28;20269;-72
2022/10/28 01:04:37;;;;;;;13.57;5.65;;;;;;;11.94;57.86;101827.72;5036203;28;20040;-71
2022/10/28 01:07:02;;;;;;;9.45;5.05;;;;;;;11.86;58.35;101825.31;5039471;28;20053;-72
2022/10/28 01:09:28;;;;;;;7.03;4.53;;;;;;;11.80;58.04;101818.53;5009640;28;20036;-72
2022/10/28 01:12:12;;;;;;;7.28;3.78;;;;;;;11.79;58.21;101814.16;5026153;28;21740;-72
2022/10/28 01:15:11;;;;;;;11.93;4.68;;;;;;;11.74;57.87;101815.19;4995958;28;20099;-71
2022/10/28 01:17:54;;;;;;;5.03;3.88;;;;;;;11.76;58.20;101814.25;5027624;28;20075;-71
2022/10/28 01:20:26;;;;;;;6.20;4.10;;;;;;;11.79;58.19;101803.69;5009878;28;20126;-71
2022/10/28 01:23:08;;;;;;;9.02;4.72;;;;;;;11.86;58.32;101797.34;5026326;28;20538;-71
2022/10/28 01:26:02;;;;;;;9.75;4.90;;;;;;;11.96;58.86;101778.75;5026965;28;21683;-71
2022/10/28 01:28:56;;;;;;;12.88;5.20;;;;;;;12.03;58.77;101775.03;5023431;28;20036;-70
2022/10/28 01:31:43;;;;;;;12.70;6.30;;;;;;;12.14;58.53;101767.69;5028858;28;20021;-72
2022/10/28 01:34:08;;;;;;;9.05;5.60;;;;;;;12.21;58.70;101766.56;5026886;28;20434;-71
2022/10/28 01:36:56;;;;;;;9.85;5.00;;;;;;;12.29;58.40;101761.94;5008872;28;20106;-72
2022/10/28 01:39:33;;;;;;;10.05;5.10;;;;;;;12.33;58.26;101764.44;5028952;28;20053;-71
2022/10/28 01:42:13;;;;;;;11.00;5.70;;;;;;;12.35;58.36;101754.78;5025566;28;20048;-71
2022/10/28 01:44:58;;;;;;;16.00;4.93;;;;;;;12.35;58.25;101741.66;5009153;28;20410;-71
2022/10/28 01:47:50;;;;;;;11.77;4.55;;;;;;;12.36;58.57;101735.53;5025349;28;20045;-71
2022/10/28 01:50:37;;;;;;;10.57;5.20;;;;;;;12.45;58.22;101740.47;5024799;28;20036;-71
2022/10/28 01:53:10;;;;;;;6.20;4.55;;;;;;;12.45;58.20;101741.31;5026241;28;20364;-72
2022/10/28 01:55:44;;;;;;;12.48;4.45;;;;;;;12.53;57.97;101745.44;5023416;28;20032;-72
2022/10/28 01:58:13;;;;;;;6.10;4.28;;;;;;;12.54;57.48;101755.03;5027381;28;20053;-72
2022/10/28 02:00:42;;;;;;;7.30;4.13;;;;;;;12.48;57.26;101753.44;5025157;28;20061;-71
2022/10/28 02:03:08;;;;;;;9.63;5.20;;;;;;;12.42;57.24;101753.66;5009196;28;20048;-72
2022/10/28 02:05:42;;;;;;;12.02;5.07;;;;;;;12.42;57.34;101751.03;5009033;28;20067;-72
2022/10/28 02:08:16;;;;;;;8.73;5.45;;;;;;;12.38;57.59;101745.06;5015859;28;20064;-71
2022/10/28 02:11:08;;;;;;;14.98;5.57;;;;;;;12.35;57.79;101745.13;5026543;28;20033;-72
2022/10/28 02:13:42;;;;;;;8.90;4.82;;;;;;;12.32;57.50;101739.16;5008608;28;20037;-71
2022/10/28 02:16:17;;;;;;;11.77;5.60;;;;;;;12.26;57.07;101735.81;5026275;28;20112;-73
2022/10/28 02:18:52;;;;;;;15.48;5.53;;;;;;;12.19;57.25;101739.56;5024990;28;20045;-71
2022/10/28 02:21:31;;;;;;;10.35;4.40;;;;;;;12.17;57.20;101736.13;5007941;28;20508;-71
2022/10/28 02:24:16;;;;;;;10.02;5.32;;;;;;;12.08;57.50;101747.75;5023593;28;20073;-71
2022/10/28 02:26:50;;;;;;;9.85;4.65;;;;;;;11.97;57.62;101738.53;5024498;28;20222;-72
2022/10/28 02:29:25;;;;;;;5.88;4.15;;;;;;;11.92;57.36;101740.47;5025908;28;20033;-72
2022/10/28 02:31:59;;;;;;;7.07;4.10;;;;;;;11.81;56.98;101728.53;5024680;28;20028;-72
2022/10/28 02:34:29;;;;;;;7.93;4.53;;;;;;;11.76;57.76;101733.06;5027061;28;20047;-71
2022/10/28 02:36:59;;;;;;;12.65;4.57;;;;;;;11.77;57.53;101726.91;5005269;28;20552;-73
2022/10/28 02:39:34;;;;;;;7.88;4.10;;;;;;;11.77;57.00;101726.03;5009830;28;20461;-72
2022/10/28 02:42:05;;;;;;;10.10;4.15;;;;;;;11.72;57.42;101727.97;5008578;28;20104;-71
2022/10/28 02:44:35;;;;;;;7.67;5.07;;;;;;;11.71;57.96;101740.19;5009890;28;20025;-72
2022/10/28 02:47:08;;;;;;;6.30;3.97;;;;;;;11.74;57.51;101737.47;5026061;28;20445;-72
2022/10/28 02:49:38;;;;;;;5.80;4.38;;;;;;;11.72;57.33;101744.53;5007899;28;20040;-72
2022/10/28 02:52:05;;;;;;;10.45;4.05;;;;;;;11.58;57.21;101742.34;4990235;28;20118;-71
2022/10/28 02:54:45;;;;;;;6.28;3.45;;;;;;;11.53;57.36;101748.59;5026786;28;20513;-71
2022/10/28 02:57:17;;;;;;;4.97;3.63;;;;;;;11.44;57.09;101741.88;5023856;28;20061;-71
2022/10/28 02:59:42;;;;;;;8.43;4.90;;;;;;;11.35;57.69;101740.41;5025590;28;20037;-70
2022/10/28 03:02:09;;;;;;;7.25;5.03;;;;;;;11.36;57.67;101736.88;5024273;28;20506;-71
2022/10/28 03:04:34;;;;;;;10.90;5.22;;;;;;;11.32;58.01;101722.16;5025475;28;20036;-72
2022/10/28 03:07:00;;;;;;;7.57;4.55;;;;;;;11.27;57.62;101726.69;5012906;28;20653;-71
2022/10/28 03:09:25;;;;;;;10.07;5.43;;;;;;;11.19;58.73;101718.19;5008921;28;20628;-73
2022/10/28 03:11:51;;;;;;;12.70;5.60;;;;;;;11.16;58.16;101723.53;5022556;28;20029;-71
2022/10/28 03:14:16;;;;;;;7.60;4.32;;;;;;;11.11;58.03;101725.44;5007241;28;20025;-71
2022/10/28 03:16:41;;;;;;;7.03;4.05;;;;;;;11.03;57.68;101731.72;5006376;28;20570;-71
2022/10/28 03:19:07;;;;;;;5.40;3.90;;;;;;;11.01;57.86;101728.28;5025401;28;20728;-71
2022/10/28 03:21:32;;;;;;;5.07;3.50;;;;;;;10.95;57.66;101735.44;5023949;28;20035;-71
2022/10/28 03:23:58;;;;;;;11.60;5.07;;;;;;;10.86;57.91;101730.47;5024332;28;20505;-71
2022/10/28 03:26:23;;;;;;;11.05;6.13;;;;;;;10.85;58.09;101732.22;5007055;28;20306;-71
2022/10/28 03:28:49;;;;;;;12.38;5.80;;;;;;;10.90;58.26;101732.09;5028111;28;20037;-71
2022/10/28 03:31:15;;;;;;;5.68;4.43;;;;;;;10.93;58.04;101732.88;5031102;28;20043;-72
2022/10/28 03:33:41;;;;;;;9.48;5.97;;;;;;;10.98;58.75;101731.00;4997346;28;20123;-71
2022/10/28 03:36:06;;;;;;;12.05;5.32;;;;;;;11.07;58.82;101729.88;5030265;28;20113;-70
2022/10/28 03:38:32;;;;;;;11.38;6.43;;;;;;;11.05;58.15;101727.28;5027290;28;20041;-71
2022/10/28 03:40:57;;;;;;;13.77;5.70;;;;;;;11.10;58.75;101734.16;5027190;28;20032;-71
2022/10/28 03:43:23;;;;;;;8.23;4.93;;;;;;;11.10;58.15;101739.41;5027625;28;20041;-71
2022/10/28 03:45:48;;;;;;;7.88;4.93;;;;;;;11.06;57.75;101738.59;5028773;28;20029;-71
2022/10/28 03:48:14;;;;;;;10.27;5.70;;;;;;;10.98;57.71;101731.00;5014094;28;20297;-71
2022/10/28 03:50:39;;;;;;;7.47;4.60;;;;;;;10.95;57.74;101732.81;5020377;28;20487;-71
2022/10/28 03:53:05;;;;;;;6.53;4.95;;;;;;;10.89;57.78;101726.03;5027104;28;20108;-72
2022/10/28 03:55:30;;;;;;;10.57;5.60;;;;;;;10.81;57.74;101723.59;5025498;28;20040;-71
2022/10/28 03:57:59;;;;;;;8.38;5.63;;;;;;;10.78;58.20;101707.97;5027915;28;20475;-70
2022/10/28 04:00:24;;;;;;;13.10;4.93;;;;;;;10.80;58.20;101715.78;5026405;28;20418;-71
2022/10/28 04:02:51;;;;;;;8.35;5.57;;;;;;;10.88;58.22;101715.59;5026280;28;20037;-71
2022/10/28 04:05:17;;;;;;;13.25;6.15;;;;;;;10.79;58.35;101714.94;5023025;28;20033;-72
2022/10/28 04:07:43;;;;;;;14.32;5.32;;;;;;;10.75;58.03;101707.19;5027443;28;20045;-72
2022/10/28 04:10:09;;;;;;;13.35;5.97;;;;;;;10.71;57.99;101703.81;5028505;28;20459;-71
2022/10/28 04:12:34;;;;;;;14.55;6.65;;;;;;;10.61;58.03;101704.97;5030521;28;20292;-71
2022/10/28 04:15:00;;;;;;;12.93;5.88;;;;;;;10.60;58.35;101706.72;5031653;28;20639;-71
2022/10/28 04:17:25;;;;;;;9.00;6.68;;;;;;;10.55;58.41;101694.69;5011036;28;20052;-72
2022/10/28 04:19:51;;;;;;;14.52;7.15;;;;;;;10.53;59.09;101697.34;5027387;28;20239;-71
2022/10/28 04:22:17;;;;;;;15.27;7.22;;;;;;;10.59;59.77;101676.25;5010749;28;20451;-71
2022/10/28 04:24:42;;;;;;;13.95;7.22;;;;;;;10.72;59.27;101681.13;5028680;28;20274;-71
2022/10/28 04:27:07;;;;;;;11.68;6.80;;;;;;;10.80;59.82;101679.19;5031506;28;20506;-71
2022/10/28 04:29:33;;;;;;;17.58;7.53;;;;;;;10.78;59.01;101675.75;5031770;28;20124;-71
2022/10/28 04:31:58;;;;;;;8.07;6.00;;;;;;;10.70;58.74;101677.72;5027073;28;20052;-71
2022/10/28 04:34:24;;;;;;;12.55;6.25;;;;;;;10.59;58.56;101678.88;5030798;28;20039;-72
2022/10/28 04:36:50;;;;;;;12.75;5.60;;;;;;;10.53;58.19;101684.25;5024902;28;20701;-71
2022/10/28 04:39:16;;;;;;;16.42;6.53;;;;;;;10.45;58.58;101673.16;5027000;28;20354;-73
2022/10/28 04:41:41;;;;;;;9.93;7.28;;;;;;;10.39;58.59;101674.19;5041795;28;20113;-71
2022/10/28 04:44:07;;;;;;;13.13;5.75;;;;;;;10.36;58.25;101668.16;5028232;28;20124;-72
2022/10/28 04:46:32;;;;;;;7.55;4.80;;;;;;;10.34;58.49;101670.81;5028430;28;20495;-71
2022/10/28 04:48:57;;;;;;;9.05;5.20;;;;;;;10.29;57.95;101664.00;5008950;28;20072;-72
2022/10/28 04:51:23;;;;;;;8.07;5.13;;;;;;;10.20;58.09;101665.09;5028056;28;20056;-73
2022/10/28 04:53:48;;;;;;;8.27;5.70;;;;;;;10.16;58.47;101653.84;5008318;28;20045;-71
2022/10/28 04:56:14;;;;;;;10.50;5.50;;;;;;;10.16;58.02;101664.31;5009734;28;20072;-73
2022/10/28 04:58:39;;;;;;;15.20;5.22;;;;;;;10.12;58.47;101659.22;5028238;28;20032;-71
2022/10/28 05:01:09;;;;;;;12.90;5.47;;;;;;;10.11;58.94;101652.28;5009635;28;20327;-71
2022/10/28 05:03:35;;;;;;;14.35;6.50;;;;;;;10.08;58.96;101662.78;5025078;28;20054;-71
2022/10/28 05:06:01;;;;;;;14.68;6.93;;;;;;;10.02;58.93;101648.16;5026309;28;20039;-71
2022/10/28 05:08:26;;;;;;;11.05;6.65;;;;;;;10.04;58.96;101659.41;5006753;28;20069;-72
2022/10/28 05:10:52;;;;;;;11.55;5.63;;;;;;;10.01;59.24;101657.75;5026950;28;20029;-71
2022/10/28 05:13:17;;;;;;;10.65;6.70;;;;;;;10.00;59.31;101650.78;4997451;28;20414;-72
2022/10/28 05:15:43;;;;;;;11.73;6.57;;;;;;;10.01;59.05;101652.53;5026056;28;20061;-72
2022/10/28 05:18:08;;;;;;;6.53;4.95;;;;;;;10.05;58.71;101658.50;5027474;28;20100;-73
2022/10/28 05:20:34;;;;;;;6.18;4.25;;;;;;;10.02;58.55;101648.16;5028347;28;20512;-71
2022/10/28 05:22:59;;;;;;;8.07;5.35;;;;;;;9.96;58.63;101653.50;5028539;28;20489;-71
2022/10/28 05:25:25;;;;;;;10.05;5.88;;;;;;;9.98;59.73;101647.34;5025383;28;20025;-71
2022/10/28 05:27:50;;;;;;;13.07;6.72;;;;;;;10.07;59.90;101656.72;5010251;28;20069;-71
2022/10/28 05:30:17;;;;;;;9.18;6.15;;;;;;;10.15;59.38;101646.09;5025462;28;20041;-71
2022/10/28 05:32:43;;;;;;;12.10;6.32;;;;;;;10.19;59.10;101643.34;5026596;28;20037;-72
2022/10/28 05:35:09;;;;;;;8.90;5.85;;;;;;;10.12;58.58;101644.38;5024732;28;20036;-72
2022/10/28 05:37:34;;;;;;;10.02;5.78;;;;;;;10.10;58.74;101648.81;5026125;28;20195;-72
2022/10/28 05:40:00;;;;;;;6.93;5.15;;;;;;;10.05;58.56;101645.44;5024827;28;20145;-71
2022/10/28 05:42:25;;;;;;;8.38;4.78;;;;;;;9.97;58.52;101640.44;5027466;28;20041;-72
2022/10/28 05:44:50;;;;;;;8.55;5.75;;;;;;;9.94;58.48;101650.09;5030076;28;20138;-71
2022/10/28 05:47:16;;;;;;;12.00;5.60;;;;;;;9.95;58.63;101646.59;5024196;28;20044;-71
2022/10/28 05:49:42;;;;;;;9.95;5.70;;;;;;;9.91;58.49;101651.03;5026492;28;20045;-71
2022/10/28 05:52:07;;;;;;;6.97;5.25;;;;;;;9.88;58.79;101647.63;5023523;28;20589;-71
2022/10/28 05:54:32;;;;;;;7.47;5.10;;;;;;;9.84;58.88;101649.47;5028541;28;20039;-71
2022/10/28 05:56:58;;;;;;;12.90;6.88;;;;;;;9.88;59.09;101647.63;5025322;28;20426;-71
2022/10/28 05:59:23;;;;;;;11.23;6.57;;;;;;;9.93;59.37;101651.84;5010316;28;20391;-71
2022/10/28 06:01:49;;;;;;;10.80;6.25;;;;;;;9.93;59.33;101645.78;5008276;28;20056;-72
2022/10/28 06:04:14;;;;;;;8.30;5.15;;;;;;;9.94;59.36;101637.03;5025816;28;20386;-71
2022/10/28 06:06:40;;;;;;;10.23;5.13;;;;;;;9.89;59.25;101631.91;5023909;28;20124;-72
2022/10/28 06:09:05;;;;;;;13.68;6.03;;;;;;;9.93;59.43;101638.78;5026801;28;20037;-72
2022/10/28 06:11:31;;;;;;;12.15;6.43;;;;;;;10.04;60.08;101635.91;5026365;28;20043;-71
2022/10/28 06:13:56;;;;;;;9.40;6.03;;;;;;;10.05;59.73;101634.16;5023473;28;20159;-75
2022/10/28 06:16:22;;;;;;;12.30;6.50;;;;;;;10.13;60.08;101642.66;5008225;28;20038;-72
2022/10/28 06:18:47;;;;;;;10.82;7.10;;;;;;;10.13;59.72;101637.44;5026399;28;20383;-72
2022/10/28 06:21:13;;;;;;;17.85;8.60;;;;;;;10.15;59.68;101644.31;5008923;28;20040;-71
2022/10/28 06:23:38;;;;;;;17.02;8.07;;;;;;;10.14;59.90;101632.16;5022456;28;20132;-73
2022/10/28 06:26:04;;;;;;;13.40;6.72;;;;;;;10.20;60.50;101633.75;5009652;28;20139;-72
2022/10/28 06:28:31;;;;;;;17.20;7.30;;;;;;;10.28;60.05;101643.97;5025347;28;20228;-72
2022/10/28 06:31:06;;;;;;;16.48;8.40;;;;;;;10.34;59.98;101638.59;5025814;28;20513;-72
2022/10/28 06:33:32;;;;;;;14.35;7.63;;;;;;;10.42;60.25;101639.25;5007300;28;20069;-72
2022/10/28 06:35:59;;;;;;;14.65;6.85;;;;;;;10.57;59.69;101630.13;5006468;28;20029;-72
2022/10/28 06:38:25;;;;;;;9.70;7.03;;;;;;;10.60;59.97;101635.28;5022132;28;20367;-72
2022/10/28 06:40:51;;;;;;;15.98;8.90;;;;;;;10.69;60.24;101634.19;5022985;28;20474;-72
2022/10/28 06:43:16;;;;;;;12.75;7.50;;;;;;;10.78;59.76;101639.97;5007840;28;20059;-72
2022/10/28 06:45:42;;;;;;;23.50;9.98;;;;;;;10.85;59.93;101648.53;5008233;28;20510;-73
2022/10/28 06:48:09;;;;;;;16.17;7.93;;;;;;;10.92;60.07;101642.22;5026007;28;20053;-72
2022/10/28 06:50:35;;;;;;;16.98;8.27;;;;;;;11.02;59.63;101642.84;5022544;28;20694;-72
2022/10/28 06:53:01;;;;;;;9.85;6.75;;;;;;;11.13;60.02;101640.75;5012141;28;20045;-72
2022/10/28 06:55:27;;;;;;;18.60;7.30;;;;;;;11.17;59.65;101637.16;5014416;28;20449;-72
2022/10/28 06:57:57;;;;;;;11.32;6.70;;;;;;;11.28;59.61;101638.56;5024327;28;20057;-71
2022/10/28 07:00:23;;;;;;;13.43;7.50;;;;;;;11.39;59.57;101639.94;5026259;28;20786;-72
2022/10/28 07:02:52;;;;;;;15.18;7.05;;;;;;;11.52;59.61;101647.41;5032153;28;20310;-72
2022/10/28 07:05:18;;;;;;;16.77;7.35;;;;;;;11.69;59.09;101645.13;5031697;28;20068;-72
2022/10/28 07:07:43;;;;;;;16.02;7.20;;;;;;;11.81;58.99;101644.72;5031472;28;20434;-72
2022/10/28 07:10:09;;;;;;;23.63;8.00;;;;;;;12.02;58.67;101635.31;5004808;28;20067;-73
2022/10/28 07:12:34;;;;;;;12.95;6.85;;;;;;;12.13;58.56;101637.53;5019498;28;20045;-73
2022/10/28 07:15:00;;;;;;;13.00;7.20;;;;;;;12.28;58.01;101633.53;5032373;28;20036;-73
2022/10/28 07:17:25;;;;;;;14.25;6.80;;;;;;;12.50;58.44;101641.50;5029663;28;20045;-72
2022/10/28 07:19:51;;;;;;;17.00;7.10;;;;;;;12.69;57.75;101644.34;5014519;28;20040;-72
2022/10/28 07:22:16;;;;;;;18.38;7.65;;;;;;;12.83;57.53;101646.47;5012018;28;20049;-71
2022/10/28 07:24:42;;;;;;;18.73;6.38;;;;;;;13.16;56.97;101652.22;5031341;28;20029;-72
2022/10/28 07:27:08;;;;;;;15.05;6.95;;;;;;;13.44;56.82;101638.84;4999591;28;20140;-72
2022/10/28 07:29:34;;;;;;;16.20;6.22;;;;;;;13.68;56.31;101644.06;5031913;28;20072;-71
2022/10/28 07:31:59;;;;;;;9.75;6.68;;;;;;;13.90;56.04;101646.66;5002984;28;20119;-71
2022/10/28 07:34:25;;;;;;;11.63;6.15;;;;;;;13.93;54.65;101646.53;5012066;28;20498;-72
2022/10/28 07:36:52;;;;;;;16.98;7.20;;;;;;;13.83;54.83;101646.06;5029421;28;20458;-72
2022/10/28 07:39:18;;;;;;;21.17;9.38;;;;;;;14.08;55.01;101647.66;5029402;28;20469;-72
2022/10/28 07:41:44;;;;;;;15.63;6.65;;;;;;;15.03;54.52;101650.47;5011825;28;20124;-71
2022/10/28 07:44:09;;;;;;;11.27;5.35;;;;;;;16.15;51.83;101653.84;5032454;28;20036;-71
2022/10/28 07:46:38;;;;;;;16.80;8.75;;;;;;;17.15;49.98;101653.78;5021148;28;20093;-71
2022/10/28 07:49:03;;;;;;;19.67;7.22;;;;;;;17.48;46.27;101650.22;5015125;28;20116;-71
2022/10/28 07:51:29;;;;;;;9.98;4.20;;;;;;;18.01;45.31;101653.34;5033265;28;20573;-71
2022/10/28 07:53:55;;;;;;;7.82;4.07;;;;;;;18.42;42.95;101650.88;5028642;28;20053;-72
2022/10/28 07:56:21;;;;;;;8.63;4.47;;;;;;;19.00;43.19;101658.81;5020664;28;20045;-72
2022/10/28 07:58:46;;;;;;;21.23;6.97;;;;;;;19.35;40.39;101645.09;5029550;28;20076;-72
2022/10/28 08:01:15;;;;;;;12.43;4.45;;;;;;;19.68;41.21;101648.22;5033181;28;20073;-71
2022/10/28 08:03:41;;;;;;;8.38;4.15;;;;;;;20.12;39.11;101640.84;5010596;28;20125;-71
2022/10/28 08:06:14;;;;;;;6.80;3.83;;;;;;;19.77;38.60;101644.09;5034368;28;20112;-72
2022/10/28 08:08:40;;;;;;;8.70;3.50;;;;;;;18.69;40.83;101639.50;5029862;28;20126;-71
2022/10/28 08:11:15;;;;;;;13.15;4.00;;;;;;;19.03;40.72;101640.06;5032404;28;20121;-71
2022/10/28 08:13:40;;;;;;;6.32;3.80;;;;;;;19.55;40.07;101636.72;5012382;28;20083;-72
2022/10/28 08:16:07;;;;;;;11.23;3.78;;;;;;;19.46;39.82;101634.66;5029783;28;20041;-71
2022/10/28 08:18:33;;;;;;;7.80;3.65;;;;;;;19.40;39.21;101622.63;5011778;28;20412;-70
2022/10/28 08:21:00;;;;;;;6.28;3.67;;;;;;;19.53;40.28;101624.50;5027812;28;20029;-71
2022/10/28 08:23:27;;;;;;;14.00;4.22;;;;;;;19.62;38.69;101632.69;5011491;28;20128;-71
2022/10/28 08:25:52;;;;;;;8.90;3.10;;;;;;;20.09;38.76;101633.94;5028806;28;20277;-71
2022/10/28 08:28:18;;;;;;;10.02;3.42;;;;;;;20.31;39.25;101636.00;5030446;28;20063;-70
2022/10/28 08:30:45;;;;;;;10.57;4.35;;;;;;;20.48;38.35;101632.13;5029597;28;20096;-72
2022/10/28 08:33:12;;;;;;;12.13;3.67;;;;;;;20.66;37.11;101629.13;5012706;28;20041;-71
2022/10/28 08:35:37;;;;;;;11.02;3.83;;;;;;;20.54;37.05;101630.88;5011189;28;20509;-73
2022/10/28 08:38:03;;;;;;;9.40;3.60;;;;;;;20.45;37.03;101637.69;5016211;28;20041;-71
2022/10/28 08:40:57;;;;;;;7.82;3.58;;;;;;;20.23;38.28;101634.81;5027334;28;20167;-71
2022/10/28 08:43:43;;;;;;;16.45;4.68;;;;;;;20.51;38.27;101636.41;5010932;28;20373;-72
2022/10/28 08:46:30;;;;;;;8.25;2.92;;;;;;;19.99;38.87;101635.50;5010188;28;20068;-71
2022/10/28 08:48:56;;;;;;;6.63;2.92;;;;;;;19.94;38.44;101627.03;5005496;28;20041;-71
2022/10/28 08:51:35;;;;;;;9.70;4.43;;;;;;;19.90;39.10;101628.19;5029102;28;20037;-71
2022/10/28 08:54:11;;;;;;;11.48;4.10;;;;;;;19.96;39.10;101625.13;5015211;28;20576;-72
2022/10/28 08:56:44;;;;;;;9.63;4.30;;;;;;;19.84;39.92;101625.97;5024623;28;20111;-72
2022/10/28 08:59:33;;;;;;;11.63;3.55;;;;;;;19.55;39.39;101628.75;5024562;28;20547;-72
2022/10/28 09:02:02;;;;;;;7.80;3.83;;;;;;;19.57;39.59;101624.22;5024482;28;20105;-72
2022/10/28 09:04:27;;;;;;;12.88;4.20;;;;;;;19.63;40.47;101634.38;5026002;28;20044;-72
2022/10/28 09:10:34;;;;;;;9.27;4.32;;;;;;;19.63;39.32;101633.53;5026061;28;20183;-71
2022/10/28 09:13:21;;;;;;;9.88;4.20;;;;;;;19.21;40.63;101635.38;5006812;28;20102;-71
2022/10/28 09:15:56;;;;;;;11.18;4.75;;;;;;;18.98;41.28;101620.97;5029393;28;20041;-71
2022/10/28 09:19:01;;;;;;;11.02;4.15;;;;;;;19.25;40.35;101610.38;5026661;28;20041;-71
2022/10/28 09:21:32;;;;;;;12.57;3.47;;;;;;;19.55;40.90;101604.91;4993043;28;20382;-71
2022/10/28 09:24:02;;;;;;;6.32;3.88;;;;;;;19.94;39.47;101615.56;5023541;28;20625;-71
2022/10/28 09:26:53;;;;;;;10.50;3.30;;;;;;;19.23;40.43;101615.81;5029413;28;20026;-71
2022/10/28 09:29:25;;;;;;;12.60;3.63;;;;;;;19.07;40.79;101625.69;5028362;28;20480;-71
2022/10/28 09:32:21;;;;;;;9.52;2.78;;;;;;;19.59;39.79;101624.97;5007891;28;20037;-71
2022/10/28 09:35:09;;;;;;;11.25;4.13;;;;;;;20.05;39.92;101623.63;5009627;28;20032;-70
2022/10/28 09:37:39;;;;;;;7.55;3.25;;;;;;;20.11;38.82;101624.06;5025672;28;20060;-70
2022/10/28 09:40:23;;;;;;;8.10;3.28;;;;;;;20.35;38.11;101617.19;5027004;28;20063;-70
2022/10/28 09:43:16;;;;;;;9.27;3.55;;;;;;;19.56;39.55;101621.66;5025408;28;20091;-71
2022/10/28 09:45:45;;;;;;;9.63;3.83;;;;;;;20.05;39.03;101623.63;5007029;28;20088;-73
2022/10/28 09:48:21;;;;;;;5.78;3.00;;;;;;;19.95;39.50;101634.03;5010929;28;20049;-71
2022/10/28 09:50:53;;;;;;;7.68;3.10;;;;;;;20.59;39.10;101626.06;5009573;28;20039;-71
2022/10/28 09:53:23;;;;;;;7.18;2.72;;;;;;;20.79;38.14;101618.50;5026977;28;20040;-71
2022/10/28 09:55:49;;;;;;;9.73;3.57;;;;;;;20.89;38.06;101620.41;5030048;28;20095;-71
2022/10/28 09:58:16;;;;;;;11.88;3.40;;;;;;;20.18;38.51;101628.97;5007927;28;20048;-72
2022/10/28 10:00:41;;;;;;;13.90;3.17;;;;;;;20.36;39.01;101625.03;5026013;28;20039;-71
2022/10/28 10:03:07;;;;;;;14.32;3.78;;;;;;;19.70;39.36;101627.75;5015095;28;20061;-71
2022/10/28 10:05:39;;;;;;;14.43;3.15;;;;;;;20.25;39.33;101624.94;5008322;28;20041;-72
2022/10/28 10:08:05;;;;;;;10.27;3.90;;;;;;;20.42;39.40;101621.97;5025854;28;20064;-71
2022/10/28 10:10:34;;;;;;;10.55;3.25;;;;;;;20.24;39.49;101624.09;5026293;28;20068;-71
2022/10/28 10:13:02;;;;;;;9.95;4.72;;;;;;;19.55;40.05;101619.91;5024903;28;20325;-71
2022/10/28 10:15:35;;;;;;;9.43;4.47;;;;;;;19.62;40.06;101621.25;5027062;28;20063;-71
2022/10/28 10:18:04;;;;;;;10.50;3.40;;;;;;;19.25;41.74;101629.78;5025153;28;20064;-72
2022/10/28 10:20:48;;;;;;;9.70;3.63;;;;;;;19.46;40.98;101621.38;5026814;28;20687;-72
2022/10/28 10:23:26;;;;;;;11.77;3.85;;;;;;;19.47;40.80;101621.25;5024165;28;20049;-71
2022/10/28 10:26:12;;;;;;;4.43;3.00;;;;;;;19.58;40.81;101617.94;5026532;28;20498;-72
2022/10/28 10:28:47;;;;;;;8.82;3.50;;;;;;;19.22;41.59;101624.69;5021901;28;20095;-71
2022/10/28 10:31:21;;;;;;;7.60;3.05;;;;;;;18.93;42.64;101636.31;5026825;28;20124;-72
2022/10/28 10:33:57;;;;;;;9.55;3.45;;;;;;;19.43;41.79;101624.22;5024256;28;20050;-72
2022/10/28 10:36:27;;;;;;;12.00;3.67;;;;;;;20.12;40.74;101619.59;5026059;28;20321;-71
2022/10/28 10:38:58;;;;;;;7.97;3.75;;;;;;;20.87;39.04;101616.19;5022951;28;20033;-71
2022/10/28 10:41:38;;;;;;;6.07;3.23;;;;;;;21.32;38.80;101605.78;5009253;28;20029;-72
2022/10/28 10:44:21;;;;;;;6.78;3.65;;;;;;;20.60;39.31;101608.34;5006227;28;20033;-71
2022/10/28 10:46:59;;;;;;;16.95;3.78;;;;;;;20.47;38.82;101611.88;5024639;28;20036;-71
2022/10/28 10:49:25;;;;;;;12.70;4.57;;;;;;;20.02;39.91;101611.44;4995300;28;20040;-72
2022/10/28 10:51:53;;;;;;;8.13;3.13;;;;;;;19.96;40.24;101609.19;5009701;28;20063;-71
2022/10/28 10:54:19;;;;;;;17.15;3.92;;;;;;;19.38;41.43;101611.28;5025130;28;20409;-71
2022/10/28 10:56:45;;;;;;;13.15;4.72;;;;;;;19.32;41.40;101598.41;5025107;28;20469;-71
2022/10/28 10:59:27;;;;;;;12.00;3.67;;;;;;;19.08;41.82;101606.19;5025017;28;20123;-72
2022/10/28 11:01:58;;;;;;;10.70;3.50;;;;;;;19.28;42.41;101605.75;5014447;28;20099;-71
2022/10/28 11:04:26;;;;;;;8.63;3.65;;;;;;;19.30;41.92;101611.78;5008403;28;20048;-72
2022/10/28 11:06:55;;;;;;;11.65;3.78;;;;;;;19.26;42.62;101617.41;5022944;28;20226;-71
2022/10/28 11:09:29;;;;;;;10.52;3.85;;;;;;;19.18;43.19;101617.03;5016802;28;20044;-71
2022/10/28 11:11:55;;;;;;;11.55;3.38;;;;;;;19.54;41.34;101608.44;5024632;28;20135;-71
2022/10/28 11:14:27;;;;;;;11.98;3.90;;;;;;;18.67;43.97;101613.13;5026770;28;20025;-71
2022/10/28 11:16:55;;;;;;;7.75;2.78;;;;;;;19.25;42.82;101618.34;5008569;28;20108;-72
2022/10/28 11:19:29;;;;;;;15.60;4.63;;;;;;;19.00;42.76;101611.13;5026029;28;20040;-71
2022/10/28 11:22:13;;;;;;;8.68;3.80;;;;;;;19.89;41.74;101606.13;4994303;28;20368;-71
2022/10/28 11:25:17;;;;;;;7.22;3.53;;;;;;;19.29;42.05;101602.13;5026526;28;20031;-71
2022/10/28 11:28:02;;;;;;;6.13;2.90;;;;;;;20.18;41.75;101602.41;5007484;28;20053;-71
2022/10/28 11:30:47;;;;;;;6.65;3.30;;;;;;;20.26;40.23;101592.13;4992694;28;20057;-70
2022/10/28 11:33:25;;;;;;;9.00;3.15;;;;;;;19.96;40.38;101589.78;5003084;28;20051;-70
2022/10/28 11:35:56;;;;;;;13.27;3.90;;;;;;;20.13;41.10;101585.00;5022682;28;20056;-71
2022/10/28 11:39:00;;;;;;;13.57;3.00;;;;;;;20.02;41.15;101582.25;5024204;28;20065;-71